sensor_id;sensor_type;location;lat;lon;timestamp;P1;durP1;ratioP1;P2;durP2;ratioP2
16800;SDS011;8518;53.236;10.384;2023-08-30T00:00:36;4.33;;;2.07;;
16800;SDS011;8518;53.236;10.384;2023-08-30T00:03:02;2.70;;;1.53;;
16800;SDS011;8518;53.236;10.384;2023-08-30T00:05:28;2.10;;;1.90;;
16800;SDS011;8518;53.236;10.384;2023-08-30T00:07:54;3.33;;;1.87;;
16800;SDS011;8518;53.236;10.384;2023-08-30T00:10:21;1.87;;;1.50;;
16800;SDS011;8518;53.236;10.384;2023-08-30T00:12:48;1.73;;;1.60;;
16800;SDS011;8518;53.236;10.384;2023-08-30T00:15:17;2.97;;;1.90;;
16800;SDS011;8518;53.236;10.384;2023-08-30T00:21:07;2.77;;;1.57;;
16800;SDS011;8518;53.236;10.384;2023-08-30T00:23:34;2.40;;;2.20;;
16800;SDS011;8518;53.236;10.384;2023-08-30T00:29:47;2.00;;;1.70;;
16800;SDS011;8518;53.236;10.384;2023-08-30T00:32:12;2.93;;;1.90;;
16800;SDS011;8518;53.236;10.384;2023-08-30T00:34:38;2.17;;;1.97;;
16800;SDS011;8518;53.236;10.384;2023-08-30T00:40:26;1.80;;;1.70;;
16800;SDS011;8518;53.236;10.384;2023-08-30T00:43:03;3.50;;;1.80;;
16800;SDS011;8518;53.236;10.384;2023-08-30T00:45:29;2.83;;;2.07;;
16800;SDS011;8518;53.236;10.384;2023-08-30T00:47:54;2.00;;;1.80;;
16800;SDS011;8518;53.236;10.384;2023-08-30T00:50:20;2.10;;;1.90;;
16800;SDS011;8518;53.236;10.384;2023-08-30T00:52:46;1.97;;;1.87;;
16800;SDS011;8518;53.236;10.384;2023-08-30T00:55:12;1.70;;;1.60;;
16800;SDS011;8518;53.236;10.384;2023-08-30T01:01:03;2.23;;;2.00;;
16800;SDS011;8518;53.236;10.384;2023-08-30T01:03:32;2.67;;;2.00;;
16800;SDS011;8518;53.236;10.384;2023-08-30T01:09:20;2.47;;;1.70;;
16800;SDS011;8518;53.236;10.384;2023-08-30T01:14:44;1.73;;;1.63;;
16800;SDS011;8518;53.236;10.384;2023-08-30T01:20:39;1.70;;;1.50;;
16800;SDS011;8518;53.236;10.384;2023-08-30T01:23:24;2.63;;;1.90;;
16800;SDS011;8518;53.236;10.384;2023-08-30T01:29:28;2.13;;;1.93;;
16800;SDS011;8518;53.236;10.384;2023-08-30T01:35:17;3.40;;;1.60;;
16800;SDS011;8518;53.236;10.384;2023-08-30T01:41:06;2.00;;;1.80;;
16800;SDS011;8518;53.236;10.384;2023-08-30T01:43:34;2.70;;;2.10;;
16800;SDS011;8518;53.236;10.384;2023-08-30T01:49:24;2.83;;;2.00;;
16800;SDS011;8518;53.236;10.384;2023-08-30T01:51:57;2.60;;;2.03;;
16800;SDS011;8518;53.236;10.384;2023-08-30T01:54:23;2.63;;;2.00;;
16800;SDS011;8518;53.236;10.384;2023-08-30T02:00:12;3.90;;;2.47;;
16800;SDS011;8518;53.236;10.384;2023-08-30T02:02:38;2.43;;;2.23;;
16800;SDS011;8518;53.236;10.384;2023-08-30T02:05:05;2.40;;;2.20;;
16800;SDS011;8518;53.236;10.384;2023-08-30T02:10:59;2.70;;;2.50;;
16800;SDS011;8518;53.236;10.384;2023-08-30T02:13:32;2.63;;;2.43;;
16800;SDS011;8518;53.236;10.384;2023-08-30T02:19:26;2.63;;;1.90;;
16800;SDS011;8518;53.236;10.384;2023-08-30T02:21:51;2.30;;;2.10;;
16800;SDS011;8518;53.236;10.384;2023-08-30T02:24:17;2.60;;;2.33;;
16800;SDS011;8518;53.236;10.384;2023-08-30T02:30:06;2.77;;;2.30;;
16800;SDS011;8518;53.236;10.384;2023-08-30T02:35:55;2.60;;;2.40;;
16800;SDS011;8518;53.236;10.384;2023-08-30T02:38:22;3.43;;;2.73;;
16800;SDS011;8518;53.236;10.384;2023-08-30T02:40:48;3.87;;;2.83;;
16800;SDS011;8518;53.236;10.384;2023-08-30T02:43:13;2.80;;;2.60;;
16800;SDS011;8518;53.236;10.384;2023-08-30T02:45:39;2.83;;;2.63;;
16800;SDS011;8518;53.236;10.384;2023-08-30T02:48:05;3.03;;;2.77;;
16800;SDS011;8518;53.236;10.384;2023-08-30T02:50:31;2.90;;;2.70;;
16800;SDS011;8518;53.236;10.384;2023-08-30T02:52:56;3.37;;;2.70;;
16800;SDS011;8518;53.236;10.384;2023-08-30T02:55:22;3.47;;;2.57;;
16800;SDS011;8518;53.236;10.384;2023-08-30T03:01:10;3.00;;;2.70;;
16800;SDS011;8518;53.236;10.384;2023-08-30T03:06:57;3.20;;;2.90;;
16800;SDS011;8518;53.236;10.384;2023-08-30T03:09:23;4.10;;;2.70;;
16800;SDS011;8518;53.236;10.384;2023-08-30T03:11:49;3.13;;;2.80;;
16800;SDS011;8518;53.236;10.384;2023-08-30T03:14:14;3.00;;;2.67;;
16800;SDS011;8518;53.236;10.384;2023-08-30T03:20:05;4.47;;;3.30;;
16800;SDS011;8518;53.236;10.384;2023-08-30T03:22:32;3.60;;;3.30;;
16800;SDS011;8518;53.236;10.384;2023-08-30T03:28:22;4.70;;;3.00;;
16800;SDS011;8518;53.236;10.384;2023-08-30T03:30:47;3.40;;;3.10;;
16800;SDS011;8518;53.236;10.384;2023-08-30T03:33:13;3.10;;;2.80;;
16800;SDS011;8518;53.236;10.384;2023-08-30T03:35:39;2.97;;;2.67;;
16800;SDS011;8518;53.236;10.384;2023-08-30T03:38:05;3.63;;;2.80;;
16800;SDS011;8518;53.236;10.384;2023-08-30T03:40:31;2.80;;;2.60;;
16800;SDS011;8518;53.236;10.384;2023-08-30T03:42:58;2.50;;;2.30;;
16800;SDS011;8518;53.236;10.384;2023-08-30T03:45:24;2.80;;;2.50;;
16800;SDS011;8518;53.236;10.384;2023-08-30T03:47:50;3.13;;;2.33;;
16800;SDS011;8518;53.236;10.384;2023-08-30T03:50:18;2.50;;;2.30;;
16800;SDS011;8518;53.236;10.384;2023-08-30T03:52:43;2.47;;;2.23;;
16800;SDS011;8518;53.236;10.384;2023-08-30T03:55:09;3.00;;;2.60;;
16800;SDS011;8518;53.236;10.384;2023-08-30T04:00:57;2.60;;;2.40;;
16800;SDS011;8518;53.236;10.384;2023-08-30T04:03:23;4.37;;;2.30;;
16800;SDS011;8518;53.236;10.384;2023-08-30T04:05:54;3.10;;;2.30;;
16800;SDS011;8518;53.236;10.384;2023-08-30T04:08:20;2.83;;;2.60;;
16800;SDS011;8518;53.236;10.384;2023-08-30T04:10:46;3.00;;;2.70;;
16800;SDS011;8518;53.236;10.384;2023-08-30T04:13:14;4.27;;;3.10;;
16800;SDS011;8518;53.236;10.384;2023-08-30T04:15:40;3.40;;;3.10;;
16800;SDS011;8518;53.236;10.384;2023-08-30T04:18:06;3.53;;;3.23;;
16800;SDS011;8518;53.236;10.384;2023-08-30T04:20:32;3.63;;;3.33;;
16800;SDS011;8518;53.236;10.384;2023-08-30T04:22:59;4.13;;;3.83;;
16800;SDS011;8518;53.236;10.384;2023-08-30T04:25:27;4.80;;;4.10;;
16800;SDS011;8518;53.236;10.384;2023-08-30T04:27:54;4.43;;;4.03;;
16800;SDS011;8518;53.236;10.384;2023-08-30T04:30:19;5.90;;;4.37;;
16800;SDS011;8518;53.236;10.384;2023-08-30T04:32:46;4.20;;;3.77;;
16800;SDS011;8518;53.236;10.384;2023-08-30T04:35:12;4.40;;;3.87;;
16800;SDS011;8518;53.236;10.384;2023-08-30T04:41:01;4.00;;;3.70;;
16800;SDS011;8518;53.236;10.384;2023-08-30T04:43:27;4.77;;;4.20;;
16800;SDS011;8518;53.236;10.384;2023-08-30T04:49:15;3.93;;;3.63;;
16800;SDS011;8518;53.236;10.384;2023-08-30T04:51:41;5.03;;;3.80;;
16800;SDS011;8518;53.236;10.384;2023-08-30T04:57:28;4.30;;;3.90;;
16800;SDS011;8518;53.236;10.384;2023-08-30T04:59:54;5.30;;;4.20;;
16800;SDS011;8518;53.236;10.384;2023-08-30T05:02:20;5.73;;;4.40;;
16800;SDS011;8518;53.236;10.384;2023-08-30T05:04:46;5.77;;;3.93;;
16800;SDS011;8518;53.236;10.384;2023-08-30T05:10:35;4.27;;;3.97;;
16800;SDS011;8518;53.236;10.384;2023-08-30T05:13:02;4.53;;;4.13;;
16800;SDS011;8518;53.236;10.384;2023-08-30T05:15:28;4.10;;;3.53;;
16800;SDS011;8518;53.236;10.384;2023-08-30T05:17:55;4.47;;;3.50;;
16800;SDS011;8518;53.236;10.384;2023-08-30T05:20:21;4.23;;;3.70;;
16800;SDS011;8518;53.236;10.384;2023-08-30T05:22:47;4.87;;;3.67;;
16800;SDS011;8518;53.236;10.384;2023-08-30T05:25:13;4.93;;;4.20;;
16800;SDS011;8518;53.236;10.384;2023-08-30T05:31:01;5.90;;;4.07;;
16800;SDS011;8518;53.236;10.384;2023-08-30T05:33:26;4.80;;;4.30;;
16800;SDS011;8518;53.236;10.384;2023-08-30T05:39:14;6.87;;;4.40;;
16800;SDS011;8518;53.236;10.384;2023-08-30T05:41:40;5.37;;;4.30;;
16800;SDS011;8518;53.236;10.384;2023-08-30T05:44:05;5.53;;;4.83;;
16800;SDS011;8518;53.236;10.384;2023-08-30T05:49:55;5.20;;;4.67;;
16800;SDS011;8518;53.236;10.384;2023-08-30T05:52:21;5.03;;;4.53;;
16800;SDS011;8518;53.236;10.384;2023-08-30T05:54:47;8.43;;;4.83;;
16800;SDS011;8518;53.236;10.384;2023-08-30T06:00:35;5.60;;;4.67;;
16800;SDS011;8518;53.236;10.384;2023-08-30T06:03:00;5.33;;;4.83;;
16800;SDS011;8518;53.236;10.384;2023-08-30T06:05:26;5.90;;;5.30;;
16800;SDS011;8518;53.236;10.384;2023-08-30T06:07:53;6.47;;;5.20;;
16800;SDS011;8518;53.236;10.384;2023-08-30T06:10:19;5.30;;;4.80;;
16800;SDS011;8518;53.236;10.384;2023-08-30T06:12:44;7.13;;;4.83;;
16800;SDS011;8518;53.236;10.384;2023-08-30T06:15:10;5.17;;;4.67;;
16800;SDS011;8518;53.236;10.384;2023-08-30T06:21:11;4.60;;;4.03;;
16800;SDS011;8518;53.236;10.384;2023-08-30T06:23:38;4.83;;;4.33;;
16800;SDS011;8518;53.236;10.384;2023-08-30T06:29:26;6.83;;;4.33;;
16800;SDS011;8518;53.236;10.384;2023-08-30T06:31:52;4.70;;;3.80;;
16800;SDS011;8518;53.236;10.384;2023-08-30T06:34:17;4.10;;;3.53;;
16800;SDS011;8518;53.236;10.384;2023-08-30T06:40:07;7.30;;;3.97;;
16800;SDS011;8518;53.236;10.384;2023-08-30T06:42:33;7.23;;;3.90;;
16800;SDS011;8518;53.236;10.384;2023-08-30T06:45:00;4.63;;;3.33;;
16800;SDS011;8518;53.236;10.384;2023-08-30T06:50:49;5.37;;;3.50;;
16800;SDS011;8518;53.236;10.384;2023-08-30T06:53:15;6.30;;;3.87;;
16800;SDS011;8518;53.236;10.384;2023-08-30T06:55:40;4.57;;;3.57;;
16800;SDS011;8518;53.236;10.384;2023-08-30T06:58:06;3.33;;;3.07;;
16800;SDS011;8518;53.236;10.384;2023-08-30T07:00:34;4.20;;;3.30;;
16800;SDS011;8518;53.236;10.384;2023-08-30T07:02:59;3.23;;;2.87;;
16800;SDS011;8518;53.236;10.384;2023-08-30T07:05:25;3.80;;;2.95;;
16800;SDS011;8518;53.236;10.384;2023-08-30T07:07:51;2.92;;;2.35;;
16800;SDS011;8518;53.236;10.384;2023-08-30T07:10:16;2.67;;;2.37;;
16800;SDS011;8518;53.236;10.384;2023-08-30T07:12:42;2.67;;;2.47;;
16800;SDS011;8518;53.236;10.384;2023-08-30T07:15:11;3.33;;;2.80;;
16800;SDS011;8518;53.236;10.384;2023-08-30T07:21:01;5.03;;;3.15;;
16800;SDS011;8518;53.236;10.384;2023-08-30T07:23:26;4.35;;;2.70;;
16800;SDS011;8518;53.236;10.384;2023-08-30T07:29:14;3.03;;;2.53;;
16800;SDS011;8518;53.236;10.384;2023-08-30T07:31:39;3.83;;;3.13;;
16800;SDS011;8518;53.236;10.384;2023-08-30T07:34:07;2.85;;;2.65;;
16800;SDS011;8518;53.236;10.384;2023-08-30T07:39:55;4.78;;;3.38;;
16800;SDS011;8518;53.236;10.384;2023-08-30T07:42:20;3.63;;;2.92;;
16800;SDS011;8518;53.236;10.384;2023-08-30T07:44:46;3.03;;;2.67;;
16800;SDS011;8518;53.236;10.384;2023-08-30T07:50:34;5.45;;;2.65;;
16800;SDS011;8518;53.236;10.384;2023-08-30T07:53:05;3.40;;;2.92;;
16800;SDS011;8518;53.236;10.384;2023-08-30T07:55:30;4.18;;;3.50;;
16800;SDS011;8518;53.236;10.384;2023-08-30T07:57:56;3.75;;;3.40;;
16800;SDS011;8518;53.236;10.384;2023-08-30T08:00:21;4.30;;;3.78;;
16800;SDS011;8518;53.236;10.384;2023-08-30T08:02:47;5.90;;;3.22;;
16800;SDS011;8518;53.236;10.384;2023-08-30T08:05:13;5.30;;;3.95;;
16800;SDS011;8518;53.236;10.384;2023-08-30T08:11:01;3.85;;;3.50;;
16800;SDS011;8518;53.236;10.384;2023-08-30T08:13:27;4.85;;;3.47;;
16800;SDS011;8518;53.236;10.384;2023-08-30T08:19:15;4.40;;;3.45;;
16800;SDS011;8518;53.236;10.384;2023-08-30T08:25:07;4.40;;;3.90;;
16800;SDS011;8518;53.236;10.384;2023-08-30T08:30:57;4.63;;;3.47;;
16800;SDS011;8518;53.236;10.384;2023-08-30T08:33:32;3.85;;;3.50;;
16800;SDS011;8518;53.236;10.384;2023-08-30T08:39:28;5.22;;;3.83;;
16800;SDS011;8518;53.236;10.384;2023-08-30T08:42:01;4.82;;;3.88;;
16800;SDS011;8518;53.236;10.384;2023-08-30T08:44:31;3.75;;;3.45;;
16800;SDS011;8518;53.236;10.384;2023-08-30T08:50:20;3.88;;;3.55;;
16800;SDS011;8518;53.236;10.384;2023-08-30T08:52:53;8.00;;;4.30;;
16800;SDS011;8518;53.236;10.384;2023-08-30T08:55:19;5.38;;;4.22;;
16800;SDS011;8518;53.236;10.384;2023-08-30T09:01:07;5.50;;;3.83;;
16800;SDS011;8518;53.236;10.384;2023-08-30T09:03:34;4.20;;;3.80;;
16800;SDS011;8518;53.236;10.384;2023-08-30T09:09:23;4.30;;;3.50;;
16800;SDS011;8518;53.236;10.384;2023-08-30T09:11:49;4.43;;;3.90;;
16800;SDS011;8518;53.236;10.384;2023-08-30T09:14:15;3.65;;;3.22;;
16800;SDS011;8518;53.236;10.384;2023-08-30T09:20:09;3.88;;;3.22;;
16800;SDS011;8518;53.236;10.384;2023-08-30T09:22:42;4.82;;;3.60;;
16800;SDS011;8518;53.236;10.384;2023-08-30T09:25:10;6.03;;;3.30;;
16800;SDS011;8518;53.236;10.384;2023-08-30T09:27:59;4.35;;;3.25;;
16800;SDS011;8518;53.236;10.384;2023-08-30T09:30:26;4.35;;;3.65;;
16800;SDS011;8518;53.236;10.384;2023-08-30T09:33:00;4.07;;;3.67;;
16800;SDS011;8518;53.236;10.384;2023-08-30T09:35:27;4.15;;;3.40;;
16800;SDS011;8518;53.236;10.384;2023-08-30T09:37:56;3.40;;;3.10;;
16800;SDS011;8518;53.236;10.384;2023-08-30T09:40:30;3.97;;;3.47;;
16800;SDS011;8518;53.236;10.384;2023-08-30T09:42:58;4.18;;;3.70;;
16800;SDS011;8518;53.236;10.384;2023-08-30T09:45:25;5.53;;;3.70;;
16800;SDS011;8518;53.236;10.384;2023-08-30T09:47:53;3.72;;;3.13;;
16800;SDS011;8518;53.236;10.384;2023-08-30T09:50:20;3.97;;;3.33;;
16800;SDS011;8518;53.236;10.384;2023-08-30T09:52:48;4.68;;;3.83;;
16800;SDS011;8518;53.236;10.384;2023-08-30T09:55:15;4.63;;;4.18;;
16800;SDS011;8518;53.236;10.384;2023-08-30T10:01:07;4.95;;;4.07;;
16800;SDS011;8518;53.236;10.384;2023-08-30T10:03:37;5.32;;;4.28;;
16800;SDS011;8518;53.236;10.384;2023-08-30T10:09:25;3.55;;;2.97;;
16800;SDS011;8518;53.236;10.384;2023-08-30T10:11:53;3.05;;;2.75;;
16800;SDS011;8518;53.236;10.384;2023-08-30T10:14:19;4.75;;;4.03;;
16800;SDS011;8518;53.236;10.384;2023-08-30T10:20:08;4.97;;;4.25;;
16800;SDS011;8518;53.236;10.384;2023-08-30T10:22:41;3.95;;;3.58;;
16800;SDS011;8518;53.236;10.384;2023-08-30T10:25:13;4.93;;;3.88;;
16800;SDS011;8518;53.236;10.384;2023-08-30T10:31:05;5.90;;;4.63;;
16800;SDS011;8518;53.236;10.384;2023-08-30T10:36:56;5.55;;;4.32;;
16800;SDS011;8518;53.236;10.384;2023-08-30T10:39:32;6.57;;;5.97;;
16800;SDS011;8518;53.236;10.384;2023-08-30T10:42:00;7.05;;;6.30;;
16800;SDS011;8518;53.236;10.384;2023-08-30T10:44:31;6.53;;;5.93;;
16800;SDS011;8518;53.236;10.384;2023-08-30T10:50:19;7.20;;;5.68;;
16800;SDS011;8518;53.236;10.384;2023-08-30T10:56:15;7.13;;;5.13;;
16800;SDS011;8518;53.236;10.384;2023-08-30T10:58:42;7.03;;;5.40;;
16800;SDS011;8518;53.236;10.384;2023-08-30T11:01:11;6.47;;;5.88;;
16800;SDS011;8518;53.236;10.384;2023-08-30T11:03:38;6.43;;;5.28;;
16800;SDS011;8518;53.236;10.384;2023-08-30T11:09:28;4.85;;;3.55;;
16800;SDS011;8518;53.236;10.384;2023-08-30T11:11:54;4.75;;;4.00;;
16800;SDS011;8518;53.236;10.384;2023-08-30T11:14:20;4.13;;;3.50;;
16800;SDS011;8518;53.236;10.384;2023-08-30T11:20:15;4.47;;;3.63;;
16800;SDS011;8518;53.236;10.384;2023-08-30T11:22:46;3.50;;;3.10;;
16800;SDS011;8518;53.236;10.384;2023-08-30T11:25:13;5.28;;;3.65;;
16800;SDS011;8518;53.236;10.384;2023-08-30T11:31:02;5.10;;;3.30;;
16800;SDS011;8518;53.236;10.384;2023-08-30T11:33:29;3.13;;;2.50;;
16800;SDS011;8518;53.236;10.384;2023-08-30T11:39:17;2.25;;;1.88;;
16800;SDS011;8518;53.236;10.384;2023-08-30T11:45:05;3.70;;;2.72;;
16800;SDS011;8518;53.236;10.384;2023-08-30T11:50:53;4.45;;;2.60;;
16800;SDS011;8518;53.236;10.384;2023-08-30T11:53:19;3.17;;;2.35;;
16800;SDS011;8518;53.236;10.384;2023-08-30T11:55:45;3.58;;;2.70;;
16800;SDS011;8518;53.236;10.384;2023-08-30T11:58:11;2.75;;;2.47;;
16800;SDS011;8518;53.236;10.384;2023-08-30T12:00:36;4.88;;;2.67;;
16800;SDS011;8518;53.236;10.384;2023-08-30T12:03:04;2.50;;;2.30;;
16800;SDS011;8518;53.236;10.384;2023-08-30T12:05:31;4.82;;;2.75;;
16800;SDS011;8518;53.236;10.384;2023-08-30T12:08:01;3.65;;;2.13;;
16800;SDS011;8518;53.236;10.384;2023-08-30T12:10:31;4.07;;;2.40;;
16800;SDS011;8518;53.236;10.384;2023-08-30T12:12:59;4.07;;;2.50;;
16800;SDS011;8518;53.236;10.384;2023-08-30T12:15:24;3.80;;;2.63;;
16800;SDS011;8518;53.236;10.384;2023-08-30T12:17:52;4.00;;;2.40;;
16800;SDS011;8518;53.236;10.384;2023-08-30T12:20:19;4.32;;;2.75;;
16800;SDS011;8518;53.236;10.384;2023-08-30T12:22:48;3.20;;;2.22;;
16800;SDS011;8518;53.236;10.384;2023-08-30T12:25:16;2.85;;;2.40;;
16800;SDS011;8518;53.236;10.384;2023-08-30T12:31:05;2.67;;;2.47;;
16800;SDS011;8518;53.236;10.384;2023-08-30T12:33:32;2.65;;;2.15;;
16800;SDS011;8518;53.236;10.384;2023-08-30T12:39:22;4.25;;;3.08;;
16800;SDS011;8518;53.236;10.384;2023-08-30T12:41:49;4.32;;;2.65;;
16800;SDS011;8518;53.236;10.384;2023-08-30T12:44:15;3.58;;;2.90;;
16800;SDS011;8518;53.236;10.384;2023-08-30T12:50:02;2.92;;;2.20;;
16800;SDS011;8518;53.236;10.384;2023-08-30T12:52:28;2.83;;;2.40;;
16800;SDS011;8518;53.236;10.384;2023-08-30T12:54:54;3.17;;;2.38;;
16800;SDS011;8518;53.236;10.384;2023-08-30T13:00:42;4.47;;;2.83;;
16800;SDS011;8518;53.236;10.384;2023-08-30T13:06:30;3.55;;;2.15;;
16800;SDS011;8518;53.236;10.384;2023-08-30T13:08:56;2.65;;;2.22;;
16800;SDS011;8518;53.236;10.384;2023-08-30T13:11:22;3.33;;;2.22;;
16800;SDS011;8518;53.236;10.384;2023-08-30T13:13:47;3.67;;;2.42;;
16800;SDS011;8518;53.236;10.384;2023-08-30T13:19:35;3.45;;;2.42;;
16800;SDS011;8518;53.236;10.384;2023-08-30T13:25:23;2.58;;;2.38;;
16800;SDS011;8518;53.236;10.384;2023-08-30T13:31:11;3.13;;;2.80;;
16800;SDS011;8518;53.236;10.384;2023-08-30T13:33:36;4.20;;;3.55;;
16800;SDS011;8518;53.236;10.384;2023-08-30T13:39:24;3.20;;;2.90;;
16800;SDS011;8518;53.236;10.384;2023-08-30T13:41:49;4.82;;;3.10;;
16800;SDS011;8518;53.236;10.384;2023-08-30T13:44:15;3.95;;;3.10;;
16800;SDS011;8518;53.236;10.384;2023-08-30T13:50:03;4.10;;;3.33;;
16800;SDS011;8518;53.236;10.384;2023-08-30T13:52:29;5.57;;;3.67;;
16800;SDS011;8518;53.236;10.384;2023-08-30T13:54:55;5.00;;;3.63;;
16800;SDS011;8518;53.236;10.384;2023-08-30T14:00:44;4.70;;;3.33;;
16800;SDS011;8518;53.236;10.384;2023-08-30T14:06:32;7.47;;;3.40;;
16800;SDS011;8518;53.236;10.384;2023-08-30T14:08:59;5.53;;;3.90;;
16800;SDS011;8518;53.236;10.384;2023-08-30T14:11:24;4.32;;;3.22;;
16800;SDS011;8518;53.236;10.384;2023-08-30T14:13:50;5.00;;;3.10;;
16800;SDS011;8518;53.236;10.384;2023-08-30T14:19:38;3.50;;;3.20;;
16800;SDS011;8518;53.236;10.384;2023-08-30T14:22:03;2.85;;;2.65;;
16800;SDS011;8518;53.236;10.384;2023-08-30T14:24:30;2.90;;;2.67;;
16800;SDS011;8518;53.236;10.384;2023-08-30T14:30:20;3.33;;;2.55;;
16800;SDS011;8518;53.236;10.384;2023-08-30T14:32:46;3.08;;;2.20;;
16800;SDS011;8518;53.236;10.384;2023-08-30T14:35:12;2.63;;;2.10;;
16800;SDS011;8518;53.236;10.384;2023-08-30T14:41:00;3.83;;;1.80;;
16800;SDS011;8518;53.236;10.384;2023-08-30T14:43:27;3.95;;;2.55;;
16800;SDS011;8518;53.236;10.384;2023-08-30T14:49:15;3.72;;;2.50;;
16800;SDS011;8518;53.236;10.384;2023-08-30T14:51:41;4.50;;;2.72;;
16800;SDS011;8518;53.236;10.384;2023-08-30T14:54:06;3.25;;;2.88;;
16800;SDS011;8518;53.236;10.384;2023-08-30T14:59:54;2.53;;;2.30;;
16800;SDS011;8518;53.236;10.384;2023-08-30T15:02:20;2.90;;;2.60;;
16800;SDS011;8518;53.236;10.384;2023-08-30T15:04:46;3.30;;;2.80;;
16800;SDS011;8518;53.236;10.384;2023-08-30T15:10:33;2.65;;;2.45;;
16800;SDS011;8518;53.236;10.384;2023-08-30T15:12:59;3.58;;;2.80;;
16800;SDS011;8518;53.236;10.384;2023-08-30T15:15:26;3.95;;;2.50;;
16800;SDS011;8518;53.236;10.384;2023-08-30T15:17:52;3.30;;;2.80;;
16800;SDS011;8518;53.236;10.384;2023-08-30T15:20:25;3.92;;;2.90;;
16800;SDS011;8518;53.236;10.384;2023-08-30T15:22:54;2.95;;;2.55;;
16800;SDS011;8518;53.236;10.384;2023-08-30T15:25:24;2.40;;;2.20;;
16800;SDS011;8518;53.236;10.384;2023-08-30T15:31:25;3.47;;;2.90;;
16800;SDS011;8518;53.236;10.384;2023-08-30T15:33:51;3.15;;;2.78;;
16800;SDS011;8518;53.236;10.384;2023-08-30T15:39:39;2.38;;;2.17;;
16800;SDS011;8518;53.236;10.384;2023-08-30T15:42:05;3.35;;;2.75;;
16800;SDS011;8518;53.236;10.384;2023-08-30T15:44:31;3.08;;;2.75;;
16800;SDS011;8518;53.236;10.384;2023-08-30T15:50:19;2.75;;;2.50;;
16800;SDS011;8518;53.236;10.384;2023-08-30T15:52:46;4.05;;;2.58;;
16800;SDS011;8518;53.236;10.384;2023-08-30T15:55:12;3.08;;;2.78;;
16800;SDS011;8518;53.236;10.384;2023-08-30T16:01:04;5.18;;;3.05;;
16800;SDS011;8518;53.236;10.384;2023-08-30T16:03:30;4.03;;;2.63;;
16800;SDS011;8518;53.236;10.384;2023-08-30T16:09:18;3.60;;;3.05;;
16800;SDS011;8518;53.236;10.384;2023-08-30T16:11:44;3.40;;;3.10;;
16800;SDS011;8518;53.236;10.384;2023-08-30T16:14:09;4.75;;;3.30;;
16800;SDS011;8518;53.236;10.384;2023-08-30T16:20:00;4.30;;;3.90;;
16800;SDS011;8518;53.236;10.384;2023-08-30T16:22:26;5.75;;;5.13;;
16800;SDS011;8518;53.236;10.384;2023-08-30T16:24:55;5.10;;;4.60;;
16800;SDS011;8518;53.236;10.384;2023-08-30T16:30:55;5.20;;;4.70;;
16800;SDS011;8518;53.236;10.384;2023-08-30T16:33:28;7.25;;;6.13;;
16800;SDS011;8518;53.236;10.384;2023-08-30T16:39:16;7.87;;;6.97;;
16800;SDS011;8518;53.236;10.384;2023-08-30T16:45:09;7.10;;;6.40;;
16800;SDS011;8518;53.236;10.384;2023-08-30T16:51:00;9.40;;;8.50;;
16800;SDS011;8518;53.236;10.384;2023-08-30T16:53:29;9.47;;;8.57;;
16800;SDS011;8518;53.236;10.384;2023-08-30T16:59:19;9.10;;;8.30;;
16800;SDS011;8518;53.236;10.384;2023-08-30T17:01:45;8.67;;;7.87;;
16800;SDS011;8518;53.236;10.384;2023-08-30T17:04:10;9.10;;;8.30;;
16800;SDS011;8518;53.236;10.384;2023-08-30T17:10:01;9.30;;;8.40;;
16800;SDS011;8518;53.236;10.384;2023-08-30T17:12:26;8.93;;;8.13;;
16800;SDS011;8518;53.236;10.384;2023-08-30T17:14:52;9.23;;;8.43;;
16800;SDS011;8518;53.236;10.384;2023-08-30T17:20:40;10.07;;;9.17;;
16800;SDS011;8518;53.236;10.384;2023-08-30T17:23:08;12.27;;;9.93;;
16800;SDS011;8518;53.236;10.384;2023-08-30T17:25:34;9.83;;;8.93;;
16800;SDS011;8518;53.236;10.384;2023-08-30T17:28:03;11.20;;;10.30;;
16800;SDS011;8518;53.236;10.384;2023-08-30T17:30:30;10.43;;;9.57;;
16800;SDS011;8518;53.236;10.384;2023-08-30T17:32:56;8.77;;;8.07;;
16800;SDS011;8518;53.236;10.384;2023-08-30T17:35:24;8.80;;;8.07;;
16800;SDS011;8518;53.236;10.384;2023-08-30T17:37:51;8.37;;;7.60;;
16800;SDS011;8518;53.236;10.384;2023-08-30T17:40:20;8.57;;;7.53;;
16800;SDS011;8518;53.236;10.384;2023-08-30T17:42:45;8.87;;;8.03;;
16800;SDS011;8518;53.236;10.384;2023-08-30T17:45:11;8.00;;;7.30;;
16800;SDS011;8518;53.236;10.384;2023-08-30T17:51:00;8.50;;;7.70;;
16800;SDS011;8518;53.236;10.384;2023-08-30T17:53:32;8.63;;;7.83;;
16800;SDS011;8518;53.236;10.384;2023-08-30T17:59:38;7.90;;;7.20;;
16800;SDS011;8518;53.236;10.384;2023-08-30T18:02:12;9.60;;;8.70;;
16800;SDS011;8518;53.236;10.384;2023-08-30T18:04:55;7.70;;;7.00;;
16800;SDS011;8518;53.236;10.384;2023-08-30T18:10:47;7.77;;;7.07;;
16800;SDS011;8518;53.236;10.384;2023-08-30T18:13:13;9.03;;;7.30;;
16800;SDS011;8518;53.236;10.384;2023-08-30T18:15:42;8.90;;;8.00;;
16800;SDS011;8518;53.236;10.384;2023-08-30T18:18:15;8.03;;;7.13;;
16800;SDS011;8518;53.236;10.384;2023-08-30T18:20:45;8.63;;;7.93;;
16800;SDS011;8518;53.236;10.384;2023-08-30T18:23:43;9.03;;;8.23;;
16800;SDS011;8518;53.236;10.384;2023-08-30T18:29:52;9.47;;;7.67;;
16800;SDS011;8518;53.236;10.384;2023-08-30T18:35:41;11.23;;;10.17;;
16800;SDS011;8518;53.236;10.384;2023-08-30T18:38:13;11.30;;;10.20;;
16800;SDS011;8518;53.236;10.384;2023-08-30T18:40:39;12.03;;;10.70;;
16800;SDS011;8518;53.236;10.384;2023-08-30T18:43:09;10.17;;;9.17;;
16800;SDS011;8518;53.236;10.384;2023-08-30T18:45:47;12.07;;;10.87;;
16800;SDS011;8518;53.236;10.384;2023-08-30T18:48:22;11.83;;;10.77;;
16800;SDS011;8518;53.236;10.384;2023-08-30T18:50:51;9.97;;;9.17;;
16800;SDS011;8518;53.236;10.384;2023-08-30T18:53:20;11.60;;;10.50;;
16800;SDS011;8518;53.236;10.384;2023-08-30T18:59:10;12.63;;;11.43;;
16800;SDS011;8518;53.236;10.384;2023-08-30T19:01:44;13.07;;;11.73;;
16800;SDS011;8518;53.236;10.384;2023-08-30T19:04:38;13.13;;;11.93;;
16800;SDS011;8518;53.236;10.384;2023-08-30T19:10:31;13.67;;;12.33;;
16800;SDS011;8518;53.236;10.384;2023-08-30T19:19:14;12.87;;;11.67;;
16800;SDS011;8518;53.236;10.384;2023-08-30T19:21:44;10.43;;;9.40;;
16800;SDS011;8518;53.236;10.384;2023-08-30T19:24:13;10.77;;;9.67;;
16800;SDS011;8518;53.236;10.384;2023-08-30T19:30:00;12.67;;;11.47;;
16800;SDS011;8518;53.236;10.384;2023-08-30T19:32:29;13.63;;;12.40;;
16800;SDS011;8518;53.236;10.384;2023-08-30T19:34:55;14.43;;;12.90;;
16800;SDS011;8518;53.236;10.384;2023-08-30T19:40:52;14.57;;;13.10;;
16800;SDS011;8518;53.236;10.384;2023-08-30T19:43:19;15.97;;;14.30;;
16800;SDS011;8518;53.236;10.384;2023-08-30T19:45:45;14.40;;;12.97;;
16800;SDS011;8518;53.236;10.384;2023-08-30T19:48:15;12.90;;;11.60;;
16800;SDS011;8518;53.236;10.384;2023-08-30T19:50:50;12.83;;;11.60;;
16800;SDS011;8518;53.236;10.384;2023-08-30T19:53:19;11.03;;;9.87;;
16800;SDS011;8518;53.236;10.384;2023-08-30T19:55:45;11.43;;;10.40;;
16800;SDS011;8518;53.236;10.384;2023-08-30T19:58:34;10.73;;;9.43;;
16800;SDS011;8518;53.236;10.384;2023-08-30T20:01:05;10.13;;;9.13;;
16800;SDS011;8518;53.236;10.384;2023-08-30T20:03:32;9.37;;;8.07;;
16800;SDS011;8518;53.236;10.384;2023-08-30T20:09:26;7.63;;;6.93;;
16800;SDS011;8518;53.236;10.384;2023-08-30T20:12:02;8.53;;;7.60;;
16800;SDS011;8518;53.236;10.384;2023-08-30T20:14:28;8.20;;;7.40;;
16800;SDS011;8518;53.236;10.384;2023-08-30T20:17:52;8.27;;;6.77;;
16800;SDS011;8518;53.236;10.384;2023-08-30T20:20:17;5.63;;;5.10;;
16800;SDS011;8518;53.236;10.384;2023-08-30T20:22:53;6.10;;;5.60;;
16800;SDS011;8518;53.236;10.384;2023-08-30T20:25:29;6.87;;;6.17;;
16800;SDS011;8518;53.236;10.384;2023-08-30T20:28:08;6.67;;;6.07;;
16800;SDS011;8518;53.236;10.384;2023-08-30T20:30:48;6.40;;;5.80;;
16800;SDS011;8518;53.236;10.384;2023-08-30T20:33:19;6.93;;;6.33;;